Chili, WI

6:37 AM CDT on October 31, 2014 (GMT -0500)
Marshfield Municipal | Change Station
CLOSE
Current Station
Airport
Location: Marshfield,
Elevation: 1276 ft
Nearby Weather Stations

Elev 1276 ft 44.64 °N, 90.19 °W | Updated 43 minutes ago

Overcast
Overcast
32 °F
Feels Like 20 °F
N
18
Wind Variable Wind from North
Gusts 28 mph

Today
High -- | Low -- °F
--% Chance of Precip.
Yesterday
High -- | Low -- °F
Precip. -- in
7:37 AM 5:51 PM
First Quarter, 54% visible
Pressure 30.32 in
Visibility 10.0 miles
Clouds Mostly Cloudy 3000 ft
Overcast 3900 ft
Windchill 20 °F
Dew Point 22 °F
Humidity 66%
Rainfall 0.00 in
Snow Depth Not available.
UV 0 out of 12
Pollen .10 out of 12
Air Quality Not available.
Flu Activity Not available.
METAR KMFI 311054Z AUTO 36016G24KT 10SM BKN030 OVC039 00/M06 A3028 RMK AO2 PK WND 36026/1031 SLP266 T00001056

More Conditions Fewer Conditions

Pressure 30.32 in
Visibility 10.0 miles
Clouds Mostly Cloudy 3000 ft
Overcast 3900 ft
Windchill 20 °F
Dew Point 22 °F
Humidity 66%
Rainfall 0.00 in
Snow Depth Not available.
UV 0 out of 12
Pollen .10 out of 12
Air Quality Not available.
Flu Activity Not available.
METAR KMFI 311054Z AUTO 36016G24KT 10SM BKN030 OVC039 00/M06 A3028 RMK AO2 PK WND 36026/1031 SLP266 T00001056

More Conditions Fewer Conditions

10-Day Weather Forecast

Almanac

Astronomy

Oct. 31, 2014 Rise Set
Actual Time
Civil Twilight
Nautical Twilight
Astronomical Twilight
Moon
Length of Visible Light
Length of Day
Tomorrow will be .
, % of the Moon is Illuminated

Today's Extremes

State Highs State Lows

Community

WunderPhotos

Upload Photos

1,766,581 photos uploaded!

WunderBlogs® & News

Nearby

Air Quality

  Air Quality AQ Index Pollutant
Not available.

Snow Depth

Station Depth Elevation

Earthquake Activity

City Distance Mag. Time & Date
Minimum magnitude displayed is 2.5.

Coastal Water Temperatures

Place Temperature

Nearby Weather Stations